Antonito, CO

8:42 AM MDT on October 24, 2014 (GMT -0600)
RAWS BIG HORN CO US | Change Station
CLOSE
Current Station
Personal Weather Station
Location: Antonito, CO
Elevation: 8650 ft
Nearby Weather Stations

Elev 8650 ft 37.02 °N, 106.20 °W | Updated 44 minutes ago

Clear
Clear
34 °F
Feels Like 34 °F
N
0
Wind Variable Wind from North
Gusts 5.0 mph

Today
High -- | Low -- °F
--% Chance of Precip.
Yesterday
High -- | Low -- °F
Precip. -- in
7:21 AM 6:16 PM
New Moon, 1% visible
Pressure 30.35 in
Visibility 10.0 miles
Clouds Clear
Windchill 34 °F
Dew Point 28 °F
Humidity 77%
Rainfall 0.00 in
Snow Depth 0 in
UV 0 out of 12
Pollen 3.00 out of 12
Air Quality Not available.
Flu Activity Sporadic
METAR KALS 241352Z AUTO 00000KT 10SM CLR M01/M04 A3042 RMK AO2 SLP278 T10111044

More Conditions Fewer Conditions

Pressure 30.35 in
Visibility 10.0 miles
Clouds Clear
Windchill 34 °F
Dew Point 28 °F
Humidity 77%
Rainfall 0.00 in
Snow Depth 0 in
UV 0 out of 12
Pollen 3.00 out of 12
Air Quality Not available.
Flu Activity Sporadic
METAR KALS 241352Z AUTO 00000KT 10SM CLR M01/M04 A3042 RMK AO2 SLP278 T10111044

More Conditions Fewer Conditions

10-Day Weather Forecast

Almanac

Astronomy

Oct. 24, 2014 Rise Set
Actual Time 7:21 AM MDT 6:16 PM MDT
Civil Twilight 6:54 AM MDT 6:42 PM MDT
Nautical Twilight 6:24 AM MDT 7:13 PM MDT
Astronomical Twilight 5:54 AM MDT 7:43 PM MDT
Moon 8:02 AM MDT 6:59 PM MDT
Length of Visible Light 11h 48m
Length of Day
10h 55m
Tomorrow will be 2m 10s shorter.
New Moon, 1% of the Moon is Illuminated
Today
New Moon
Oct 30
First Quarter
Nov 6
Full
Nov 14
Last Quarter
Nov 22
New

Today's Extremes

State Highs State Lows

Community

WunderPhotos

Upload Photos

1,764,581 photos uploaded!

WunderBlogs® & News

Nearby

Snow Depth

Station Depth Elevation
Cumbres Trestle 0 in 10020 ft
Lily Pond 0 in 11000 ft
Grayback 0 in 11620 ft
Wolf Creek Summit 1 in 11000 ft
Upper San Juan 0 in 10130 ft

Earthquake Activity

City Distance Mag. Time & Date
No recent earthquake activity has been reported nearby.
Minimum magnitude displayed is 2.5.

Coastal Water Temperatures

Place Temperature
No Stations Reporting

Nearby Weather Stations